sensor_id;sensor_type;location;lat;lon;timestamp;P1;durP1;ratioP1;P2;durP2;ratioP2
11127;SDS011;5618;51.028;5.234;2022-09-03T00:01:36;1.17;;;1.00;;
11127;SDS011;5618;51.028;5.234;2022-09-03T00:04:18;1.27;;;1.10;;
11127;SDS011;5618;51.028;5.234;2022-09-03T00:07:02;1.05;;;1.05;;
11127;SDS011;5618;51.028;5.234;2022-09-03T00:09:38;1.17;;;1.10;;
11127;SDS011;5618;51.028;5.234;2022-09-03T00:12:14;1.25;;;1.15;;
11127;SDS011;5618;51.028;5.234;2022-09-03T00:17:16;1.10;;;1.10;;
11127;SDS011;5618;51.028;5.234;2022-09-03T00:19:50;1.20;;;1.10;;
11127;SDS011;5618;51.028;5.234;2022-09-03T00:22:26;1.77;;;1.08;;
11127;SDS011;5618;51.028;5.234;2022-09-03T00:24:57;1.45;;;1.05;;
11127;SDS011;5618;51.028;5.234;2022-09-03T00:27:27;1.30;;;0.95;;
11127;SDS011;5618;51.028;5.234;2022-09-03T00:29:56;1.10;;;1.10;;
11127;SDS011;5618;51.028;5.234;2022-09-03T00:32:40;1.23;;;1.13;;
11127;SDS011;5618;51.028;5.234;2022-09-03T00:38:00;1.40;;;1.30;;
11127;SDS011;5618;51.028;5.234;2022-09-03T00:43:41;2.50;;;1.30;;
11127;SDS011;5618;51.028;5.234;2022-09-03T00:49:21;1.95;;;1.10;;
11127;SDS011;5618;51.028;5.234;2022-09-03T01:05:26;2.08;;;1.60;;
11127;SDS011;5618;51.028;5.234;2022-09-03T01:13:20;1.58;;;1.45;;
11127;SDS011;5618;51.028;5.234;2022-09-03T01:30:22;1.40;;;1.10;;
11127;SDS011;5618;51.028;5.234;2022-09-03T01:35:48;1.20;;;1.10;;
11127;SDS011;5618;51.028;5.234;2022-09-03T01:38:29;1.20;;;1.10;;
11127;SDS011;5618;51.028;5.234;2022-09-03T01:46:43;1.00;;;1.00;;
11127;SDS011;5618;51.028;5.234;2022-09-03T01:49:18;1.23;;;1.00;;
11127;SDS011;5618;51.028;5.234;2022-09-03T01:52:12;2.45;;;1.15;;
11127;SDS011;5618;51.028;5.234;2022-09-03T01:57:46;3.17;;;1.30;;
11127;SDS011;5618;51.028;5.234;2022-09-03T02:00:16;1.17;;;1.08;;
11127;SDS011;5618;51.028;5.234;2022-09-03T02:02:45;1.67;;;1.30;;
11127;SDS011;5618;51.028;5.234;2022-09-03T02:05:23;3.10;;;1.05;;
11127;SDS011;5618;51.028;5.234;2022-09-03T02:07:55;1.27;;;1.17;;
11127;SDS011;5618;51.028;5.234;2022-09-03T02:10:28;1.10;;;1.00;;
11127;SDS011;5618;51.028;5.234;2022-09-03T02:13:11;2.55;;;1.15;;
11127;SDS011;5618;51.028;5.234;2022-09-03T02:15:56;4.25;;;1.38;;
11127;SDS011;5618;51.028;5.234;2022-09-03T02:18:25;1.33;;;1.23;;
11127;SDS011;5618;51.028;5.234;2022-09-03T02:20:58;1.20;;;1.10;;
11127;SDS011;5618;51.028;5.234;2022-09-03T02:23:24;2.42;;;1.25;;
11127;SDS011;5618;51.028;5.234;2022-09-03T02:25:54;1.27;;;1.17;;
11127;SDS011;5618;51.028;5.234;2022-09-03T02:28:22;2.78;;;0.98;;
11127;SDS011;5618;51.028;5.234;2022-09-03T02:30:48;2.03;;;1.27;;
11127;SDS011;5618;51.028;5.234;2022-09-03T02:33:14;1.20;;;1.10;;
11127;SDS011;5618;51.028;5.234;2022-09-03T02:35:41;1.75;;;1.30;;
11127;SDS011;5618;51.028;5.234;2022-09-03T02:38:17;1.35;;;1.25;;
11127;SDS011;5618;51.028;5.234;2022-09-03T02:40:45;1.10;;;1.10;;
11127;SDS011;5618;51.028;5.234;2022-09-03T02:46:07;1.05;;;0.95;;
11127;SDS011;5618;51.028;5.234;2022-09-03T02:48:37;3.13;;;1.20;;
11127;SDS011;5618;51.028;5.234;2022-09-03T02:51:03;1.10;;;1.10;;
11127;SDS011;5618;51.028;5.234;2022-09-03T02:53:29;3.60;;;0.93;;
11127;SDS011;5618;51.028;5.234;2022-09-03T02:55:58;3.10;;;1.30;;
11127;SDS011;5618;51.028;5.234;2022-09-03T02:58:24;1.25;;;1.10;;
11127;SDS011;5618;51.028;5.234;2022-09-03T03:00:51;1.55;;;1.40;;
11127;SDS011;5618;51.028;5.234;2022-09-03T03:03:17;1.25;;;1.10;;
11127;SDS011;5618;51.028;5.234;2022-09-03T03:05:44;1.63;;;1.23;;
11127;SDS011;5618;51.028;5.234;2022-09-03T03:08:10;1.77;;;1.15;;
11127;SDS011;5618;51.028;5.234;2022-09-03T03:10:39;1.63;;;1.17;;
11127;SDS011;5618;51.028;5.234;2022-09-03T03:13:06;5.15;;;1.30;;
11127;SDS011;5618;51.028;5.234;2022-09-03T03:15:31;1.80;;;1.30;;
11127;SDS011;5618;51.028;5.234;2022-09-03T03:17:57;1.35;;;1.05;;
11127;SDS011;5618;51.028;5.234;2022-09-03T03:20:23;1.27;;;1.17;;
11127;SDS011;5618;51.028;5.234;2022-09-03T03:22:49;1.15;;;1.10;;
11127;SDS011;5618;51.028;5.234;2022-09-03T03:25:14;1.95;;;1.20;;
11127;SDS011;5618;51.028;5.234;2022-09-03T03:27:40;2.08;;;1.30;;
11127;SDS011;5618;51.028;5.234;2022-09-03T03:30:07;5.88;;;1.27;;
11127;SDS011;5618;51.028;5.234;2022-09-03T03:32:35;0.90;;;0.90;;
11127;SDS011;5618;51.028;5.234;2022-09-03T03:35:01;1.05;;;1.00;;
11127;SDS011;5618;51.028;5.234;2022-09-03T03:37:28;1.42;;;1.13;;
11127;SDS011;5618;51.028;5.234;2022-09-03T03:39:53;1.80;;;1.27;;
11127;SDS011;5618;51.028;5.234;2022-09-03T03:42:19;1.60;;;1.25;;
11127;SDS011;5618;51.028;5.234;2022-09-03T03:44:44;0.98;;;0.93;;
11127;SDS011;5618;51.028;5.234;2022-09-03T03:47:10;1.20;;;1.17;;
11127;SDS011;5618;51.028;5.234;2022-09-03T03:49:36;1.48;;;1.38;;
11127;SDS011;5618;51.028;5.234;2022-09-03T03:52:02;1.15;;;1.05;;
11127;SDS011;5618;51.028;5.234;2022-09-03T03:54:28;1.23;;;1.15;;
11127;SDS011;5618;51.028;5.234;2022-09-03T03:56:54;1.35;;;1.25;;
11127;SDS011;5618;51.028;5.234;2022-09-03T03:59:20;1.20;;;1.10;;
11127;SDS011;5618;51.028;5.234;2022-09-03T04:01:46;1.38;;;0.90;;
11127;SDS011;5618;51.028;5.234;2022-09-03T04:04:14;1.67;;;0.98;;
11127;SDS011;5618;51.028;5.234;2022-09-03T04:06:40;3.33;;;1.08;;
11127;SDS011;5618;51.028;5.234;2022-09-03T04:09:06;2.00;;;1.15;;
11127;SDS011;5618;51.028;5.234;2022-09-03T04:11:31;0.95;;;0.80;;
11127;SDS011;5618;51.028;5.234;2022-09-03T04:13:57;1.70;;;1.33;;
11127;SDS011;5618;51.028;5.234;2022-09-03T04:16:23;1.52;;;1.20;;
11127;SDS011;5618;51.028;5.234;2022-09-03T04:18:51;1.10;;;1.10;;
11127;SDS011;5618;51.028;5.234;2022-09-03T04:21:24;2.92;;;1.20;;
11127;SDS011;5618;51.028;5.234;2022-09-03T04:23:52;1.38;;;1.17;;
11127;SDS011;5618;51.028;5.234;2022-09-03T04:26:22;2.17;;;1.05;;
11127;SDS011;5618;51.028;5.234;2022-09-03T04:28:49;4.15;;;0.93;;
11127;SDS011;5618;51.028;5.234;2022-09-03T04:31:16;1.63;;;1.27;;
11127;SDS011;5618;51.028;5.234;2022-09-03T04:33:43;3.50;;;1.08;;
11127;SDS011;5618;51.028;5.234;2022-09-03T04:36:10;2.33;;;1.00;;
11127;SDS011;5618;51.028;5.234;2022-09-03T04:38:38;1.63;;;1.30;;
11127;SDS011;5618;51.028;5.234;2022-09-03T04:41:06;1.85;;;1.33;;
11127;SDS011;5618;51.028;5.234;2022-09-03T04:43:34;0.70;;;0.70;;
11127;SDS011;5618;51.028;5.234;2022-09-03T04:46:01;1.00;;;0.90;;
11127;SDS011;5618;51.028;5.234;2022-09-03T04:48:30;1.67;;;1.00;;
11127;SDS011;5618;51.028;5.234;2022-09-03T04:51:07;1.25;;;1.15;;
11127;SDS011;5618;51.028;5.234;2022-09-03T04:53:35;2.05;;;0.90;;
11127;SDS011;5618;51.028;5.234;2022-09-03T04:56:02;0.93;;;0.60;;
11127;SDS011;5618;51.028;5.234;2022-09-03T04:58:36;1.40;;;1.05;;
11127;SDS011;5618;51.028;5.234;2022-09-03T05:01:09;2.15;;;1.33;;
11127;SDS011;5618;51.028;5.234;2022-09-03T05:03:36;1.45;;;1.05;;
11127;SDS011;5618;51.028;5.234;2022-09-03T05:06:01;0.85;;;0.80;;
11127;SDS011;5618;51.028;5.234;2022-09-03T05:08:29;1.25;;;0.80;;
11127;SDS011;5618;51.028;5.234;2022-09-03T05:10:58;1.02;;;0.93;;
11127;SDS011;5618;51.028;5.234;2022-09-03T05:13:25;0.93;;;0.88;;
11127;SDS011;5618;51.028;5.234;2022-09-03T05:15:52;3.00;;;1.20;;
11127;SDS011;5618;51.028;5.234;2022-09-03T05:18:23;1.13;;;0.93;;
11127;SDS011;5618;51.028;5.234;2022-09-03T05:20:56;0.93;;;0.80;;
11127;SDS011;5618;51.028;5.234;2022-09-03T05:23:23;1.00;;;0.90;;
11127;SDS011;5618;51.028;5.234;2022-09-03T05:25:56;1.63;;;1.20;;
11127;SDS011;5618;51.028;5.234;2022-09-03T05:28:23;2.08;;;1.30;;
11127;SDS011;5618;51.028;5.234;2022-09-03T05:31:05;1.50;;;1.10;;
11127;SDS011;5618;51.028;5.234;2022-09-03T05:33:38;1.90;;;1.08;;
11127;SDS011;5618;51.028;5.234;2022-09-03T05:36:07;1.63;;;0.80;;
11127;SDS011;5618;51.028;5.234;2022-09-03T05:38:34;0.75;;;0.75;;
11127;SDS011;5618;51.028;5.234;2022-09-03T05:41:00;1.20;;;1.10;;
11127;SDS011;5618;51.028;5.234;2022-09-03T05:43:29;1.13;;;1.02;;
11127;SDS011;5618;51.028;5.234;2022-09-03T05:45:59;1.33;;;0.73;;
11127;SDS011;5618;51.028;5.234;2022-09-03T05:48:36;0.80;;;0.80;;
11127;SDS011;5618;51.028;5.234;2022-09-03T05:51:04;2.50;;;1.05;;
11127;SDS011;5618;51.028;5.234;2022-09-03T05:53:32;1.05;;;0.98;;
11127;SDS011;5618;51.028;5.234;2022-09-03T05:56:01;1.67;;;1.10;;
11127;SDS011;5618;51.028;5.234;2022-09-03T05:58:30;2.40;;;0.95;;
11127;SDS011;5618;51.028;5.234;2022-09-03T06:00:57;1.27;;;1.13;;
11127;SDS011;5618;51.028;5.234;2022-09-03T06:03:23;2.45;;;0.98;;
11127;SDS011;5618;51.028;5.234;2022-09-03T06:05:52;1.40;;;1.05;;
11127;SDS011;5618;51.028;5.234;2022-09-03T06:08:19;1.40;;;1.10;;
11127;SDS011;5618;51.028;5.234;2022-09-03T06:10:45;0.63;;;0.63;;
11127;SDS011;5618;51.028;5.234;2022-09-03T06:13:11;2.38;;;0.90;;
11127;SDS011;5618;51.028;5.234;2022-09-03T06:15:37;2.58;;;1.05;;
11127;SDS011;5618;51.028;5.234;2022-09-03T06:18:04;1.20;;;1.10;;
11127;SDS011;5618;51.028;5.234;2022-09-03T06:20:29;1.80;;;0.98;;
11127;SDS011;5618;51.028;5.234;2022-09-03T06:22:56;1.25;;;1.15;;
11127;SDS011;5618;51.028;5.234;2022-09-03T06:25:22;1.10;;;1.00;;
11127;SDS011;5618;51.028;5.234;2022-09-03T06:27:48;2.08;;;0.93;;
11127;SDS011;5618;51.028;5.234;2022-09-03T06:30:14;2.33;;;1.15;;
11127;SDS011;5618;51.028;5.234;2022-09-03T06:32:46;1.33;;;1.23;;
11127;SDS011;5618;51.028;5.234;2022-09-03T06:35:14;1.20;;;1.10;;
11127;SDS011;5618;51.028;5.234;2022-09-03T06:37:41;1.80;;;1.00;;
11127;SDS011;5618;51.028;5.234;2022-09-03T06:40:07;1.50;;;1.02;;
11127;SDS011;5618;51.028;5.234;2022-09-03T06:42:40;3.55;;;1.08;;
11127;SDS011;5618;51.028;5.234;2022-09-03T06:45:09;1.48;;;1.30;;
11127;SDS011;5618;51.028;5.234;2022-09-03T06:47:35;1.48;;;1.15;;
11127;SDS011;5618;51.028;5.234;2022-09-03T06:50:00;1.10;;;1.00;;
11127;SDS011;5618;51.028;5.234;2022-09-03T06:52:29;1.55;;;1.10;;
11127;SDS011;5618;51.028;5.234;2022-09-03T06:54:55;2.03;;;1.10;;
11127;SDS011;5618;51.028;5.234;2022-09-03T06:57:21;1.77;;;1.23;;
11127;SDS011;5618;51.028;5.234;2022-09-03T06:59:46;1.20;;;1.10;;
11127;SDS011;5618;51.028;5.234;2022-09-03T07:02:13;1.00;;;1.00;;
11127;SDS011;5618;51.028;5.234;2022-09-03T07:04:39;0.95;;;0.95;;
11127;SDS011;5618;51.028;5.234;2022-09-03T07:07:04;1.05;;;0.95;;
11127;SDS011;5618;51.028;5.234;2022-09-03T07:09:37;2.15;;;1.20;;
11127;SDS011;5618;51.028;5.234;2022-09-03T07:12:03;1.60;;;1.30;;
11127;SDS011;5618;51.028;5.234;2022-09-03T07:14:29;1.20;;;1.05;;
11127;SDS011;5618;51.028;5.234;2022-09-03T07:16:54;0.90;;;0.85;;
11127;SDS011;5618;51.028;5.234;2022-09-03T07:19:20;2.15;;;1.15;;
11127;SDS011;5618;51.028;5.234;2022-09-03T07:21:46;1.50;;;1.00;;
11127;SDS011;5618;51.028;5.234;2022-09-03T07:24:11;2.00;;;1.13;;
11127;SDS011;5618;51.028;5.234;2022-09-03T07:26:40;1.50;;;1.10;;
11127;SDS011;5618;51.028;5.234;2022-09-03T07:29:10;0.93;;;0.88;;
11127;SDS011;5618;51.028;5.234;2022-09-03T07:31:39;4.32;;;1.27;;
11127;SDS011;5618;51.028;5.234;2022-09-03T07:34:07;4.25;;;1.20;;
11127;SDS011;5618;51.028;5.234;2022-09-03T07:36:37;2.53;;;0.85;;
11127;SDS011;5618;51.028;5.234;2022-09-03T07:39:08;0.75;;;0.73;;
11127;SDS011;5618;51.028;5.234;2022-09-03T07:41:38;2.40;;;0.82;;
11127;SDS011;5618;51.028;5.234;2022-09-03T07:44:09;1.20;;;1.10;;
11127;SDS011;5618;51.028;5.234;2022-09-03T07:46:37;2.42;;;0.88;;
11127;SDS011;5618;51.028;5.234;2022-09-03T07:49:04;2.85;;;1.35;;
11127;SDS011;5618;51.028;5.234;2022-09-03T07:51:34;1.67;;;1.15;;
11127;SDS011;5618;51.028;5.234;2022-09-03T07:54:02;1.52;;;1.27;;
11127;SDS011;5618;51.028;5.234;2022-09-03T07:56:34;1.85;;;1.13;;
11127;SDS011;5618;51.028;5.234;2022-09-03T07:59:00;4.53;;;1.33;;
11127;SDS011;5618;51.028;5.234;2022-09-03T08:01:27;0.95;;;0.95;;
11127;SDS011;5618;51.028;5.234;2022-09-03T08:03:55;1.48;;;1.30;;
11127;SDS011;5618;51.028;5.234;2022-09-03T08:06:22;2.47;;;1.20;;
11127;SDS011;5618;51.028;5.234;2022-09-03T08:08:59;3.90;;;1.10;;
11127;SDS011;5618;51.028;5.234;2022-09-03T08:11:29;1.38;;;1.25;;
11127;SDS011;5618;51.028;5.234;2022-09-03T08:13:56;2.97;;;1.20;;
11127;SDS011;5618;51.028;5.234;2022-09-03T08:16:27;1.30;;;1.13;;
11127;SDS011;5618;51.028;5.234;2022-09-03T08:18:54;1.80;;;0.95;;
11127;SDS011;5618;51.028;5.234;2022-09-03T08:21:20;4.22;;;1.10;;
11127;SDS011;5618;51.028;5.234;2022-09-03T08:23:47;1.42;;;1.33;;
11127;SDS011;5618;51.028;5.234;2022-09-03T08:26:15;2.38;;;1.30;;
11127;SDS011;5618;51.028;5.234;2022-09-03T08:28:42;1.70;;;1.20;;
11127;SDS011;5618;51.028;5.234;2022-09-03T08:33:38;1.52;;;1.42;;
11127;SDS011;5618;51.028;5.234;2022-09-03T08:38:34;2.05;;;1.00;;
11127;SDS011;5618;51.028;5.234;2022-09-03T08:44:05;4.75;;;1.10;;
11127;SDS011;5618;51.028;5.234;2022-09-03T08:46:36;1.55;;;1.30;;
11127;SDS011;5618;51.028;5.234;2022-09-03T08:49:04;1.38;;;1.20;;
11127;SDS011;5618;51.028;5.234;2022-09-03T08:51:34;2.45;;;1.17;;
11127;SDS011;5618;51.028;5.234;2022-09-03T08:54:04;1.92;;;1.10;;
11127;SDS011;5618;51.028;5.234;2022-09-03T08:56:33;1.30;;;1.15;;
11127;SDS011;5618;51.028;5.234;2022-09-03T08:59:02;0.90;;;0.90;;
11127;SDS011;5618;51.028;5.234;2022-09-03T09:01:48;1.10;;;1.00;;
11127;SDS011;5618;51.028;5.234;2022-09-03T09:04:42;5.97;;;1.27;;
11127;SDS011;5618;51.028;5.234;2022-09-03T09:07:18;2.17;;;1.50;;
11127;SDS011;5618;51.028;5.234;2022-09-03T09:09:49;1.90;;;1.27;;
11127;SDS011;5618;51.028;5.234;2022-09-03T09:12:28;1.52;;;1.30;;
11127;SDS011;5618;51.028;5.234;2022-09-03T09:21:14;3.88;;;1.33;;
11127;SDS011;5618;51.028;5.234;2022-09-03T09:23:45;1.50;;;1.23;;
11127;SDS011;5618;51.028;5.234;2022-09-03T09:26:14;1.75;;;1.27;;
11127;SDS011;5618;51.028;5.234;2022-09-03T09:28:46;1.67;;;1.25;;
11127;SDS011;5618;51.028;5.234;2022-09-03T09:31:21;2.08;;;1.40;;
11127;SDS011;5618;51.028;5.234;2022-09-03T09:33:46;3.38;;;1.27;;
11127;SDS011;5618;51.028;5.234;2022-09-03T09:36:16;3.22;;;1.38;;
11127;SDS011;5618;51.028;5.234;2022-09-03T09:38:43;1.60;;;1.25;;
11127;SDS011;5618;51.028;5.234;2022-09-03T09:41:12;1.98;;;1.40;;
11127;SDS011;5618;51.028;5.234;2022-09-03T09:43:43;1.48;;;1.20;;
11127;SDS011;5618;51.028;5.234;2022-09-03T09:48:38;1.35;;;1.25;;
11127;SDS011;5618;51.028;5.234;2022-09-03T09:51:16;1.70;;;1.40;;
11127;SDS011;5618;51.028;5.234;2022-09-03T09:54:01;2.55;;;1.52;;
11127;SDS011;5618;51.028;5.234;2022-09-03T09:56:38;1.42;;;1.30;;
11127;SDS011;5618;51.028;5.234;2022-09-03T09:59:08;1.15;;;1.13;;
11127;SDS011;5618;51.028;5.234;2022-09-03T10:01:36;1.38;;;1.27;;
11127;SDS011;5618;51.028;5.234;2022-09-03T10:06:52;2.53;;;1.58;;
11127;SDS011;5618;51.028;5.234;2022-09-03T10:09:24;2.20;;;1.20;;
11127;SDS011;5618;51.028;5.234;2022-09-03T10:12:13;4.93;;;1.60;;
11127;SDS011;5618;51.028;5.234;2022-09-03T10:17:20;1.77;;;1.67;;
11127;SDS011;5618;51.028;5.234;2022-09-03T10:22:49;4.65;;;1.80;;
11127;SDS011;5618;51.028;5.234;2022-09-03T10:25:28;1.50;;;1.40;;
11127;SDS011;5618;51.028;5.234;2022-09-03T10:28:13;1.60;;;1.40;;
11127;SDS011;5618;51.028;5.234;2022-09-03T10:31:00;3.60;;;1.60;;
11127;SDS011;5618;51.028;5.234;2022-09-03T10:33:38;1.13;;;1.13;;
11127;SDS011;5618;51.028;5.234;2022-09-03T10:36:27;1.35;;;1.25;;
11127;SDS011;5618;51.028;5.234;2022-09-03T10:39:24;1.58;;;1.48;;
11127;SDS011;5618;51.028;5.234;2022-09-03T10:44:28;1.52;;;1.33;;
11127;SDS011;5618;51.028;5.234;2022-09-03T10:47:27;5.10;;;1.50;;
11127;SDS011;5618;51.028;5.234;2022-09-03T10:53:20;1.27;;;1.20;;
11127;SDS011;5618;51.028;5.234;2022-09-03T10:56:15;1.45;;;1.35;;
11127;SDS011;5618;51.028;5.234;2022-09-03T11:01:27;1.77;;;1.38;;
11127;SDS011;5618;51.028;5.234;2022-09-03T11:06:50;1.85;;;1.50;;
11127;SDS011;5618;51.028;5.234;2022-09-03T11:09:39;1.67;;;1.58;;
11127;SDS011;5618;51.028;5.234;2022-09-03T11:12:35;1.10;;;1.02;;
11127;SDS011;5618;51.028;5.234;2022-09-03T11:15:06;1.40;;;1.30;;
11127;SDS011;5618;51.028;5.234;2022-09-03T11:17:41;2.28;;;1.27;;
11127;SDS011;5618;51.028;5.234;2022-09-03T11:20:19;1.73;;;1.17;;
11127;SDS011;5618;51.028;5.234;2022-09-03T11:22:47;2.13;;;1.40;;
11127;SDS011;5618;51.028;5.234;2022-09-03T11:25:17;1.60;;;1.50;;
11127;SDS011;5618;51.028;5.234;2022-09-03T11:33:16;1.10;;;1.00;;
11127;SDS011;5618;51.028;5.234;2022-09-03T11:35:45;1.60;;;1.50;;
11127;SDS011;5618;51.028;5.234;2022-09-03T11:41:03;1.25;;;1.20;;
11127;SDS011;5618;51.028;5.234;2022-09-03T11:43:38;1.25;;;1.25;;
11127;SDS011;5618;51.028;5.234;2022-09-03T11:46:12;2.85;;;1.50;;
11127;SDS011;5618;51.028;5.234;2022-09-03T11:51:04;1.60;;;1.45;;
11127;SDS011;5618;51.028;5.234;2022-09-03T11:54:04;1.50;;;1.40;;
11127;SDS011;5618;51.028;5.234;2022-09-03T11:56:30;1.63;;;1.52;;
11127;SDS011;5618;51.028;5.234;2022-09-03T12:01:41;1.20;;;1.08;;
11127;SDS011;5618;51.028;5.234;2022-09-03T12:04:30;1.60;;;1.50;;
11127;SDS011;5618;51.028;5.234;2022-09-03T12:15:54;2.85;;;1.35;;
11127;SDS011;5618;51.028;5.234;2022-09-03T12:18:30;5.57;;;2.20;;
11127;SDS011;5618;51.028;5.234;2022-09-03T12:26:16;1.40;;;1.30;;
11127;SDS011;5618;51.028;5.234;2022-09-03T12:28:54;1.77;;;1.17;;
11127;SDS011;5618;51.028;5.234;2022-09-03T12:34:11;1.50;;;1.40;;
11127;SDS011;5618;51.028;5.234;2022-09-03T12:36:40;3.22;;;1.50;;
11127;SDS011;5618;51.028;5.234;2022-09-03T12:42:26;1.73;;;1.40;;
11127;SDS011;5618;51.028;5.234;2022-09-03T12:44:31;1.50;;;1.40;;
11127;SDS011;5618;51.028;5.234;2022-09-03T12:47:10;1.40;;;1.30;;
11127;SDS011;5618;51.028;5.234;2022-09-03T12:49:41;1.52;;;1.30;;
11127;SDS011;5618;51.028;5.234;2022-09-03T12:57:30;1.75;;;1.65;;
11127;SDS011;5618;51.028;5.234;2022-09-03T13:00:07;1.65;;;1.55;;
11127;SDS011;5618;51.028;5.234;2022-09-03T13:02:36;1.50;;;1.40;;
11127;SDS011;5618;51.028;5.234;2022-09-03T13:05:21;1.92;;;1.35;;
11127;SDS011;5618;51.028;5.234;2022-09-03T13:08:08;1.80;;;1.42;;
11127;SDS011;5618;51.028;5.234;2022-09-03T13:10:39;1.50;;;1.40;;
11127;SDS011;5618;51.028;5.234;2022-09-03T13:13:28;1.60;;;1.50;;
11127;SDS011;5618;51.028;5.234;2022-09-03T13:16:04;1.63;;;1.52;;
11127;SDS011;5618;51.028;5.234;2022-09-03T13:32:25;1.42;;;1.33;;
11127;SDS011;5618;51.028;5.234;2022-09-03T13:34:54;1.60;;;1.50;;
11127;SDS011;5618;51.028;5.234;2022-09-03T13:40:24;4.18;;;1.58;;
11127;SDS011;5618;51.028;5.234;2022-09-03T13:45:44;1.58;;;1.45;;
11127;SDS011;5618;51.028;5.234;2022-09-03T13:48:42;1.65;;;1.50;;
11127;SDS011;5618;51.028;5.234;2022-09-03T13:51:35;1.48;;;1.38;;
11127;SDS011;5618;51.028;5.234;2022-09-03T14:02:04;1.70;;;1.60;;
11127;SDS011;5618;51.028;5.234;2022-09-03T14:19:01;5.20;;;1.73;;
11127;SDS011;5618;51.028;5.234;2022-09-03T14:21:42;1.38;;;1.33;;
11127;SDS011;5618;51.028;5.234;2022-09-03T14:26:56;1.50;;;1.40;;
11127;SDS011;5618;51.028;5.234;2022-09-03T14:29:26;1.63;;;1.52;;
11127;SDS011;5618;51.028;5.234;2022-09-03T14:37:53;1.70;;;1.60;;
11127;SDS011;5618;51.028;5.234;2022-09-03T14:55:03;1.67;;;1.58;;
11127;SDS011;5618;51.028;5.234;2022-09-03T15:00:32;2.08;;;1.77;;
11127;SDS011;5618;51.028;5.234;2022-09-03T15:06:20;1.83;;;1.73;;
11127;SDS011;5618;51.028;5.234;2022-09-03T15:12:15;2.65;;;1.10;;
11127;SDS011;5618;51.028;5.234;2022-09-03T15:14:51;2.35;;;1.42;;
11127;SDS011;5618;51.028;5.234;2022-09-03T15:20:29;1.70;;;1.60;;
11127;SDS011;5618;51.028;5.234;2022-09-03T15:31:21;1.75;;;1.48;;
11127;SDS011;5618;51.028;5.234;2022-09-03T15:33:56;2.17;;;1.60;;
11127;SDS011;5618;51.028;5.234;2022-09-03T15:36:49;2.33;;;1.77;;
11127;SDS011;5618;51.028;5.234;2022-09-03T15:39:23;1.50;;;1.40;;
11127;SDS011;5618;51.028;5.234;2022-09-03T15:41:55;1.83;;;1.45;;
11127;SDS011;5618;51.028;5.234;2022-09-03T15:44:41;1.60;;;1.50;;
11127;SDS011;5618;51.028;5.234;2022-09-03T15:47:40;1.55;;;1.45;;
11127;SDS011;5618;51.028;5.234;2022-09-03T15:50:36;1.95;;;1.75;;
11127;SDS011;5618;51.028;5.234;2022-09-03T15:56:34;1.33;;;1.23;;
11127;SDS011;5618;51.028;5.234;2022-09-03T16:02:08;3.38;;;1.60;;
11127;SDS011;5618;51.028;5.234;2022-09-03T16:10:38;3.47;;;1.55;;
11127;SDS011;5618;51.028;5.234;2022-09-03T16:15:48;2.38;;;1.90;;
11127;SDS011;5618;51.028;5.234;2022-09-03T16:18:32;1.98;;;1.80;;
11127;SDS011;5618;51.028;5.234;2022-09-03T16:26:07;1.67;;;1.58;;
11127;SDS011;5618;51.028;5.234;2022-09-03T16:28:42;3.83;;;1.90;;
11127;SDS011;5618;51.028;5.234;2022-09-03T16:45:23;1.73;;;1.63;;
11127;SDS011;5618;51.028;5.234;2022-09-03T16:56:14;2.33;;;1.88;;
11127;SDS011;5618;51.028;5.234;2022-09-03T16:59:08;3.05;;;1.60;;
11127;SDS011;5618;51.028;5.234;2022-09-03T17:02:04;1.45;;;1.35;;
11127;SDS011;5618;51.028;5.234;2022-09-03T17:11:06;2.05;;;1.92;;
11127;SDS011;5618;51.028;5.234;2022-09-03T17:13:39;1.88;;;1.77;;
11127;SDS011;5618;51.028;5.234;2022-09-03T17:16:29;2.58;;;1.65;;
11127;SDS011;5618;51.028;5.234;2022-09-03T17:19:34;2.60;;;1.77;;
11127;SDS011;5618;51.028;5.234;2022-09-03T17:30:17;2.00;;;1.58;;
11127;SDS011;5618;51.028;5.234;2022-09-03T17:44:06;2.95;;;1.52;;
11127;SDS011;5618;51.028;5.234;2022-09-03T17:46:57;2.60;;;1.92;;
11127;SDS011;5618;51.028;5.234;2022-09-03T17:49:46;1.70;;;1.60;;
11127;SDS011;5618;51.028;5.234;2022-09-03T17:54:54;1.65;;;1.55;;
11127;SDS011;5618;51.028;5.234;2022-09-03T17:57:46;3.40;;;1.80;;
11127;SDS011;5618;51.028;5.234;2022-09-03T18:05:57;1.92;;;1.70;;
11127;SDS011;5618;51.028;5.234;2022-09-03T18:11:13;3.17;;;2.25;;
11127;SDS011;5618;51.028;5.234;2022-09-03T18:16:51;6.60;;;1.95;;
11127;SDS011;5618;51.028;5.234;2022-09-03T18:19:49;2.28;;;1.67;;
11127;SDS011;5618;51.028;5.234;2022-09-03T18:26:04;1.73;;;1.58;;
11127;SDS011;5618;51.028;5.234;2022-09-03T18:28:55;1.88;;;1.70;;
11127;SDS011;5618;51.028;5.234;2022-09-03T18:31:48;2.10;;;1.83;;
11127;SDS011;5618;51.028;5.234;2022-09-03T18:34:33;2.88;;;2.13;;
11127;SDS011;5618;51.028;5.234;2022-09-03T18:37:22;3.83;;;1.70;;
11127;SDS011;5618;51.028;5.234;2022-09-03T18:40:17;1.35;;;1.25;;
11127;SDS011;5618;51.028;5.234;2022-09-03T18:43:18;4.78;;;1.80;;
11127;SDS011;5618;51.028;5.234;2022-09-03T18:46:17;3.22;;;1.70;;
11127;SDS011;5618;51.028;5.234;2022-09-03T18:49:30;2.15;;;1.42;;
11127;SDS011;5618;51.028;5.234;2022-09-03T18:52:29;1.42;;;1.33;;
11127;SDS011;5618;51.028;5.234;2022-09-03T18:55:57;3.58;;;1.50;;
11127;SDS011;5618;51.028;5.234;2022-09-03T19:02:32;1.70;;;1.60;;
11127;SDS011;5618;51.028;5.234;2022-09-03T19:14:59;1.50;;;1.40;;
11127;SDS011;5618;51.028;5.234;2022-09-03T19:24:22;1.67;;;1.58;;
11127;SDS011;5618;51.028;5.234;2022-09-03T19:30:15;1.95;;;1.55;;
11127;SDS011;5618;51.028;5.234;2022-09-03T19:36:19;1.95;;;1.77;;
11127;SDS011;5618;51.028;5.234;2022-09-03T19:39:12;1.98;;;1.60;;
11127;SDS011;5618;51.028;5.234;2022-09-03T19:42:17;1.73;;;1.63;;
11127;SDS011;5618;51.028;5.234;2022-09-03T19:45:36;1.70;;;1.60;;
11127;SDS011;5618;51.028;5.234;2022-09-03T19:49:21;1.50;;;1.38;;
11127;SDS011;5618;51.028;5.234;2022-09-03T19:52:44;3.63;;;1.67;;
11127;SDS011;5618;51.028;5.234;2022-09-03T19:55:15;2.75;;;1.52;;
11127;SDS011;5618;51.028;5.234;2022-09-03T19:58:04;2.92;;;1.60;;
11127;SDS011;5618;51.028;5.234;2022-09-03T20:00:49;2.08;;;1.88;;
11127;SDS011;5618;51.028;5.234;2022-09-03T20:03:33;1.75;;;1.52;;
11127;SDS011;5618;51.028;5.234;2022-09-03T20:06:18;2.20;;;2.00;;
11127;SDS011;5618;51.028;5.234;2022-09-03T20:09:07;2.33;;;1.60;;
11127;SDS011;5618;51.028;5.234;2022-09-03T20:11:56;3.50;;;2.03;;
11127;SDS011;5618;51.028;5.234;2022-09-03T20:14:24;1.35;;;1.25;;
11127;SDS011;5618;51.028;5.234;2022-09-03T20:30:20;1.70;;;1.55;;
11127;SDS011;5618;51.028;5.234;2022-09-03T20:35:53;1.95;;;1.23;;
11127;SDS011;5618;51.028;5.234;2022-09-03T20:44:07;1.60;;;1.50;;
11127;SDS011;5618;51.028;5.234;2022-09-03T20:52:07;1.50;;;1.40;;
11127;SDS011;5618;51.028;5.234;2022-09-03T20:54:47;1.58;;;1.48;;
11127;SDS011;5618;51.028;5.234;2022-09-03T21:00:24;1.92;;;1.65;;
11127;SDS011;5618;51.028;5.234;2022-09-03T21:05:26;2.00;;;1.77;;
11127;SDS011;5618;51.028;5.234;2022-09-03T21:13:30;1.33;;;1.20;;
11127;SDS011;5618;51.028;5.234;2022-09-03T21:26:52;1.52;;;1.42;;
11127;SDS011;5618;51.028;5.234;2022-09-03T21:29:24;2.38;;;1.20;;
11127;SDS011;5618;51.028;5.234;2022-09-03T21:34:45;2.08;;;1.83;;
11127;SDS011;5618;51.028;5.234;2022-09-03T21:37:20;1.50;;;1.40;;
11127;SDS011;5618;51.028;5.234;2022-09-03T21:39:51;2.67;;;1.95;;
11127;SDS011;5618;51.028;5.234;2022-09-03T21:45:03;1.73;;;1.60;;
11127;SDS011;5618;51.028;5.234;2022-09-03T21:47:31;1.83;;;1.67;;
11127;SDS011;5618;51.028;5.234;2022-09-03T21:52:55;1.40;;;1.25;;
11127;SDS011;5618;51.028;5.234;2022-09-03T22:00:38;1.70;;;1.60;;
11127;SDS011;5618;51.028;5.234;2022-09-03T22:03:04;1.48;;;1.30;;
11127;SDS011;5618;51.028;5.234;2022-09-03T22:08:17;1.52;;;1.30;;
11127;SDS011;5618;51.028;5.234;2022-09-03T22:11:09;1.17;;;1.17;;
11127;SDS011;5618;51.028;5.234;2022-09-03T22:14:04;2.35;;;1.58;;
11127;SDS011;5618;51.028;5.234;2022-09-03T22:16:38;1.40;;;1.30;;
11127;SDS011;5618;51.028;5.234;2022-09-03T22:19:05;1.55;;;1.17;;
11127;SDS011;5618;51.028;5.234;2022-09-03T22:24:19;1.45;;;1.35;;